Time;durP1;ratioP1;P1;durP2;ratioP2;P2;SDS_P1;SDS_P2;PMS_P1;PMS_P2;Temp;Humidity;BMP_temperature;BMP_pressure;BME280_temperature;BME280_humidity;BME280_pressure;Samples;Min_cycle;Max_cycle;Signal;HPM_P1;HPM_P2
2023/09/12 00:00:11;;;;;;;1.53;1.40;;;;;;;13.86;56.76;93715.25;524227;28;832;-46
2023/09/12 00:00:26;;;;;;;1.55;1.38;;;;;;;13.80;56.64;93709.16;524208;28;941;-47
2023/09/12 00:00:42;;;;;;;1.50;1.40;;;;;;;13.84;56.75;93718.56;524224;28;851;-46
2023/09/12 00:00:58;;;;;;;1.70;1.40;;;;;;;13.83;56.94;93717.09;524259;28;830;-46
2023/09/12 00:01:13;;;;;;;1.90;1.40;;;;;;;13.82;57.00;93710.06;524212;28;929;-47
2023/09/12 00:01:32;;;;;;;1.80;1.40;;;;;;;13.83;56.98;93721.91;524308;28;834;-47
2023/09/12 00:01:47;;;;;;;1.50;1.40;;;;;;;13.82;57.03;93714.91;524228;28;821;-46
2023/09/12 00:02:03;;;;;;;2.07;1.50;;;;;;;13.81;57.11;93718.97;524230;28;764;-46
2023/09/12 00:02:19;;;;;;;1.77;1.45;;;;;;;13.80;57.13;93718.22;524213;28;887;-46
2023/09/12 00:02:34;;;;;;;2.47;1.33;;;;;;;13.80;57.02;93711.94;524154;28;989;-48
2023/09/12 00:02:50;;;;;;;3.03;1.50;;;;;;;13.80;57.03;93720.25;524197;28;874;-47
2023/09/12 00:03:05;;;;;;;1.50;1.38;;;;;;;13.79;57.05;93716.75;524214;28;839;-47
2023/09/12 00:03:22;;;;;;;1.53;1.43;;;;;;;13.77;57.13;93719.38;524120;28;823;-47
2023/09/12 00:03:37;;;;;;;1.92;1.58;;;;;;;13.77;57.38;93721.41;524321;28;849;-46
2023/09/12 00:03:53;;;;;;;2.00;1.40;;;;;;;13.76;57.30;93722.69;524162;28;1004;-48
2023/09/12 00:04:08;;;;;;;1.48;1.33;;;;;;;13.76;57.45;93719.91;524204;28;913;-49
2023/09/12 00:04:23;;;;;;;1.70;1.40;;;;;;;13.76;57.38;93717.13;524161;28;878;-46
2023/09/12 00:04:39;;;;;;;2.00;1.67;;;;;;;13.75;57.34;93724.75;524286;28;815;-48
2023/09/12 00:04:54;;;;;;;1.95;1.77;;;;;;;13.75;57.31;93718.44;524268;28;1036;-47
2023/09/12 00:05:10;;;;;;;1.80;1.70;;;;;;;13.74;57.24;93723.25;524241;28;828;-46
2023/09/12 00:05:25;;;;;;;1.70;1.60;;;;;;;13.74;57.42;93720.47;524189;28;851;-47
2023/09/12 00:05:40;;;;;;;2.28;1.60;;;;;;;13.73;57.37;93721.06;524294;28;781;-46
2023/09/12 00:05:58;;;;;;;2.70;1.50;;;;;;;13.72;57.43;93717.53;524199;28;847;-48
2023/09/12 00:06:13;;;;;;;1.80;1.40;;;;;;;13.73;57.72;93719.00;524201;28;910;-47
2023/09/12 00:06:29;;;;;;;1.60;1.50;;;;;;;13.73;57.52;93723.84;524220;28;909;-46
2023/09/12 00:06:44;;;;;;;2.40;1.70;;;;;;;13.71;57.75;93721.59;524263;28;1053;-47
2023/09/12 00:06:59;;;;;;;2.65;1.70;;;;;;;13.72;57.62;93722.34;524229;28;858;-46
2023/09/12 00:07:15;;;;;;;2.63;1.60;;;;;;;13.72;57.45;93723.09;524261;28;810;-46
2023/09/12 00:07:30;;;;;;;2.67;1.60;;;;;;;13.71;57.58;93720.88;524265;28;826;-47
2023/09/12 00:07:46;;;;;;;1.90;1.42;;;;;;;13.71;57.49;93718.81;524234;28;791;-46
2023/09/12 00:08:01;;;;;;;2.67;1.30;;;;;;;13.65;57.49;93716.28;524249;28;783;-47
2023/09/12 00:08:17;;;;;;;3.00;1.20;;;;;;;13.70;57.39;93717.38;524222;28;778;-46
2023/09/12 00:08:32;;;;;;;2.93;1.50;;;;;;;13.69;57.56;93713.09;524128;28;930;-46
2023/09/12 00:08:48;;;;;;;3.03;1.60;;;;;;;13.69;57.48;93719.41;524224;28;866;-47
2023/09/12 00:09:06;;;;;;;4.17;1.30;;;;;;;13.69;57.34;93721.44;524126;28;922;-48
2023/09/12 00:09:21;;;;;;;3.65;1.30;;;;;;;13.68;57.63;93717.94;524256;28;1133;-47
2023/09/12 00:09:37;;;;;;;1.27;1.17;;;;;;;13.67;57.43;93721.25;524217;28;875;-46
2023/09/12 00:09:52;;;;;;;1.10;1.07;;;;;;;13.63;57.58;93716.09;524139;28;854;-46
2023/09/12 00:10:08;;;;;;;1.75;1.30;;;;;;;13.65;57.76;93719.06;524190;28;976;-46
2023/09/12 00:10:23;;;;;;;2.07;1.57;;;;;;;13.64;57.55;93720.34;524175;28;1628;-46
2023/09/12 00:10:38;;;;;;;3.83;1.58;;;;;;;13.64;57.72;93716.84;524255;28;871;-46
2023/09/12 00:11:10;;;;;;;4.30;1.50;;;;;;;13.63;57.66;93720.91;524258;28;787;-46
2023/09/12 00:11:25;;;;;;;2.10;1.40;;;;;;;13.59;57.83;93717.78;524169;28;857;-46
2023/09/12 00:11:40;;;;;;;1.50;1.40;;;;;;;13.60;58.11;93719.25;524137;28;1989;-47
2023/09/12 00:11:56;;;;;;;1.60;1.50;;;;;;;13.59;58.02;93717.78;524170;28;995;-49
2023/09/12 00:12:14;;;;;;;3.23;1.50;;;;;;;13.59;58.08;93720.56;524194;28;945;-46
2023/09/12 00:12:29;;;;;;;2.50;1.45;;;;;;;13.58;58.04;93714.25;524227;28;836;-46
2023/09/12 00:12:45;;;;;;;2.10;1.42;;;;;;;13.58;57.92;93719.81;524246;28;831;-46
2023/09/12 00:13:02;;;;;;;1.97;1.80;;;;;;;13.59;57.93;93721.31;524144;28;919;-46
2023/09/12 00:13:17;;;;;;;2.42;1.92;;;;;;;13.58;57.70;93719.81;524210;28;924;-47
2023/09/12 00:13:32;;;;;;;3.17;1.50;;;;;;;13.58;57.78;93719.06;524148;28;894;-47
2023/09/12 00:13:48;;;;;;;2.53;1.42;;;;;;;13.57;57.60;93723.16;524197;28;817;-46
2023/09/12 00:14:03;;;;;;;1.70;1.60;;;;;;;13.54;57.71;93719.47;524180;28;815;-46
2023/09/12 00:14:19;;;;;;;1.87;1.57;;;;;;;13.57;57.76;93720.38;524113;28;906;-47
2023/09/12 00:14:34;;;;;;;3.38;1.70;;;;;;;13.56;57.88;93718.91;524019;28;775;-47
2023/09/12 00:14:49;;;;;;;3.13;1.53;;;;;;;13.56;57.86;93719.63;524031;28;752;-47
2023/09/12 00:15:05;;;;;;;2.20;1.40;;;;;;;13.56;58.04;93716.13;524067;28;788;-46
2023/09/12 00:15:21;;;;;;;1.97;1.43;;;;;;;13.53;58.00;93718.00;524006;28;759;-47
2023/09/12 00:15:36;;;;;;;1.80;1.30;;;;;;;13.54;58.19;93721.50;524087;28;799;-46
2023/09/12 00:15:52;;;;;;;2.00;1.30;;;;;;;13.53;58.11;93722.81;524054;28;772;-46
2023/09/12 00:16:10;;;;;;;1.65;1.30;;;;;;;13.52;58.03;93716.53;524066;28;771;-47
2023/09/12 00:16:26;;;;;;;1.87;1.50;;;;;;;13.52;57.85;93722.06;524260;28;813;-46
2023/09/12 00:16:41;;;;;;;1.85;1.58;;;;;;;13.51;57.77;93726.13;524133;28;867;-47
2023/09/12 00:16:56;;;;;;;1.60;1.50;;;;;;;13.50;57.68;93713.56;524207;28;863;-47
2023/09/12 00:17:12;;;;;;;1.40;1.30;;;;;;;13.52;57.95;93726.88;524254;28;783;-47
2023/09/12 00:17:27;;;;;;;1.63;1.20;;;;;;;13.49;57.74;93720.41;524264;28;772;-46
2023/09/12 00:17:42;;;;;;;1.53;1.27;;;;;;;13.49;57.88;93723.19;524227;28;785;-46
2023/09/12 00:17:58;;;;;;;1.40;1.30;;;;;;;13.50;57.68;93716.34;524270;28;784;-46
2023/09/12 00:18:13;;;;;;;1.85;1.45;;;;;;;13.50;57.63;93721.16;524189;28;866;-47
2023/09/12 00:18:29;;;;;;;2.43;1.50;;;;;;;13.50;57.63;93718.38;524266;28;768;-47
2023/09/12 00:18:44;;;;;;;2.00;1.63;;;;;;;13.47;57.70;93719.50;524172;28;851;-46
2023/09/12 00:18:59;;;;;;;1.55;1.45;;;;;;;13.49;57.69;93720.41;524165;28;888;-46
2023/09/12 00:19:15;;;;;;;1.40;1.30;;;;;;;13.51;57.57;93725.41;524172;28;812;-46
2023/09/12 00:19:30;;;;;;;1.42;1.33;;;;;;;13.49;57.49;93714.84;524277;28;768;-46
2023/09/12 00:19:46;;;;;;;1.47;1.37;;;;;;;13.49;57.63;93728.72;524151;28;832;-47
2023/09/12 00:20:01;;;;;;;1.42;1.33;;;;;;;13.49;57.66;93717.63;524213;28;849;-46
2023/09/12 00:20:17;;;;;;;2.40;1.47;;;;;;;13.49;57.52;93723.19;524132;28;823;-47
2023/09/12 00:20:32;;;;;;;2.07;1.47;;;;;;;13.48;57.78;93721.72;524224;28;842;-46
2023/09/12 00:20:48;;;;;;;1.58;1.48;;;;;;;13.48;57.60;93720.97;524222;28;1514;-46
2023/09/12 00:21:03;;;;;;;2.43;1.70;;;;;;;13.47;57.59;93722.28;524185;28;862;-46
2023/09/12 00:21:19;;;;;;;2.95;1.52;;;;;;;13.47;57.65;93719.50;524187;28;831;-46
2023/09/12 00:21:34;;;;;;;4.30;1.50;;;;;;;13.46;57.62;93713.22;524201;28;772;-46
2023/09/12 00:21:49;;;;;;;4.85;1.50;;;;;;;13.46;57.69;93726.34;524185;28;863;-47
2023/09/12 00:22:05;;;;;;;2.57;1.33;;;;;;;13.47;57.69;93722.28;524122;28;834;-47
2023/09/12 00:22:20;;;;;;;1.40;1.30;;;;;;;13.46;57.84;93720.81;524166;28;943;-46
2023/09/12 00:22:36;;;;;;;1.40;1.30;;;;;;;13.45;57.84;93716.53;524269;28;835;-46
2023/09/12 00:22:53;;;;;;;1.40;1.30;;;;;;;13.45;57.72;93722.81;524200;28;919;-47
2023/09/12 00:23:08;;;;;;;1.70;1.30;;;;;;;13.45;57.83;93722.09;524191;28;918;-47
2023/09/12 00:23:23;;;;;;;1.85;1.50;;;;;;;13.44;57.89;93720.63;524132;28;823;-47
2023/09/12 00:23:39;;;;;;;1.60;1.50;;;;;;;13.19;58.15;93683.75;524234;28;792;-47
2023/09/12 00:23:54;;;;;;;1.60;1.50;;;;;;;13.43;58.04;93722.66;524180;28;819;-46
2023/09/12 00:24:10;;;;;;;1.55;1.45;;;;;;;13.43;57.98;93714.34;524150;28;851;-47
2023/09/12 00:24:25;;;;;;;1.60;1.40;;;;;;;13.43;58.03;93725.44;524092;28;876;-46
2023/09/12 00:24:40;;;;;;;2.23;1.70;;;;;;;13.44;58.02;93717.84;524209;28;902;-47
2023/09/12 00:24:56;;;;;;;1.98;1.67;;;;;;;13.41;57.91;93719.72;524150;28;852;-47
2023/09/12 00:25:11;;;;;;;1.60;1.40;;;;;;;13.42;57.77;93718.41;524223;28;842;-47
2023/09/12 00:25:26;;;;;;;1.80;1.60;;;;;;;13.43;57.59;93719.13;524228;28;763;-47
2023/09/12 00:25:42;;;;;;;1.63;1.48;;;;;;;13.42;57.74;93721.19;524189;28;871;-47
2023/09/12 00:25:58;;;;;;;1.63;1.50;;;;;;;13.38;57.65;93714.56;524187;28;847;-47
2023/09/12 00:26:13;;;;;;;1.77;1.67;;;;;;;13.41;57.65;93727.28;524133;28;841;-47
2023/09/12 00:26:30;;;;;;;1.97;1.73;;;;;;;13.41;57.54;93719.72;524175;28;882;-46
2023/09/12 00:26:45;;;;;;;2.13;1.77;;;;;;;13.40;57.72;93721.03;524211;28;895;-46
2023/09/12 00:27:01;;;;;;;1.58;1.48;;;;;;;13.39;57.78;93724.34;524236;28;813;-47
2023/09/12 00:27:16;;;;;;;3.07;1.47;;;;;;;13.38;57.83;93720.81;524149;28;1073;-46
2023/09/12 00:27:32;;;;;;;3.27;1.70;;;;;;;13.37;57.82;93722.13;524240;28;862;-47
2023/09/12 00:27:47;;;;;;;1.98;1.65;;;;;;;13.36;57.72;93726.19;524133;28;863;-46
2023/09/12 00:28:03;;;;;;;1.60;1.40;;;;;;;13.36;57.77;93725.47;524188;28;784;-46
2023/09/12 00:28:19;;;;;;;1.67;1.57;;;;;;;13.36;58.02;93726.19;524194;28;995;-46
2023/09/12 00:28:35;;;;;;;1.70;1.60;;;;;;;13.35;57.92;93718.44;524179;28;946;-46
2023/09/12 00:28:50;;;;;;;1.37;1.27;;;;;;;13.33;58.03;93715.50;524242;28;784;-46
2023/09/12 00:29:06;;;;;;;1.52;1.42;;;;;;;13.35;57.89;93726.75;524135;28;831;-47
2023/09/12 00:29:21;;;;;;;2.10;1.57;;;;;;;13.33;57.95;93724.56;524251;28;744;-48
2023/09/12 00:29:37;;;;;;;1.60;1.20;;;;;;;13.34;57.98;93720.47;524235;28;756;-46
2023/09/12 00:29:52;;;;;;;1.30;1.20;;;;;;;13.32;58.03;93723.06;524078;28;1213;-46
2023/09/12 00:30:07;;;;;;;2.07;1.60;;;;;;;13.34;58.05;93723.25;524151;28;1236;-47
2023/09/12 00:30:23;;;;;;;2.33;1.70;;;;;;;13.33;57.98;93727.31;524201;28;925;-47
2023/09/12 00:30:38;;;;;;;1.90;1.63;;;;;;;13.32;58.26;93720.28;524237;28;1223;-47
2023/09/12 00:30:53;;;;;;;2.30;1.67;;;;;;;13.33;58.05;93723.81;524181;28;909;-46
2023/09/12 00:31:09;;;;;;;2.72;1.70;;;;;;;13.32;58.21;93733.44;524178;28;930;-46
2023/09/12 00:31:24;;;;;;;4.03;1.53;;;;;;;13.31;58.11;93718.84;524097;28;863;-47
2023/09/12 00:31:40;;;;;;;3.07;1.30;;;;;;;13.31;58.40;93724.38;524234;28;821;-46
2023/09/12 00:31:55;;;;;;;1.33;1.23;;;;;;;13.29;58.07;93720.69;524162;28;1918;-46
2023/09/12 00:32:10;;;;;;;1.70;1.60;;;;;;;13.30;58.18;93720.13;524168;28;818;-47
2023/09/12 00:32:26;;;;;;;1.80;1.70;;;;;;;13.29;58.16;93721.44;524157;28;867;-46
2023/09/12 00:32:41;;;;;;;1.65;1.55;;;;;;;13.29;58.28;93721.44;524149;28;898;-47
2023/09/12 00:32:56;;;;;;;1.53;1.43;;;;;;;13.29;58.22;93726.22;524120;28;807;-46
2023/09/12 00:33:12;;;;;;;1.50;1.40;;;;;;;13.28;58.18;93722.72;524178;28;771;-46
2023/09/12 00:33:27;;;;;;;1.52;1.42;;;;;;;13.28;58.29;93719.94;524233;28;867;-46
2023/09/12 00:33:43;;;;;;;1.70;1.40;;;;;;;13.27;58.29;93723.28;523906;28;958;-46
2023/09/12 00:33:58;;;;;;;2.17;1.60;;;;;;;13.26;58.20;93724.56;524049;28;772;-47
2023/09/12 00:34:17;;;;;;;2.70;1.80;;;;;;;13.26;58.29;93722.53;524012;28;760;-47
2023/09/12 00:34:32;;;;;;;2.67;1.60;;;;;;;13.27;58.38;93723.28;523962;28;904;-46
2023/09/12 00:34:48;;;;;;;2.80;1.90;;;;;;;13.26;58.37;93722.53;524084;28;855;-47
2023/09/12 00:35:04;;;;;;;1.98;1.77;;;;;;;13.25;58.31;93721.06;523947;28;894;-46
2023/09/12 00:35:19;;;;;;;1.73;1.63;;;;;;;13.26;58.39;93725.31;524057;28;812;-46
2023/09/12 00:35:34;;;;;;;1.70;1.60;;;;;;;13.26;58.62;93728.09;523923;28;1141;-46
2023/09/12 00:35:50;;;;;;;1.77;1.53;;;;;;;13.26;58.49;93724.56;523921;28;768;-46
2023/09/12 00:36:05;;;;;;;2.10;1.70;;;;;;;13.24;58.53;93725.13;523782;28;850;-47
2023/09/12 00:36:20;;;;;;;1.88;1.48;;;;;;;13.25;58.51;93723.09;524092;28;780;-47
2023/09/12 00:36:37;;;;;;;2.20;1.40;;;;;;;13.24;58.45;93721.63;524149;28;800;-47
2023/09/12 00:36:53;;;;;;;1.90;1.60;;;;;;;13.24;58.66;93722.34;524125;28;949;-46
2023/09/12 00:37:08;;;;;;;3.83;1.63;;;;;;;13.23;58.57;93718.09;524151;28;871;-48
2023/09/12 00:37:23;;;;;;;3.88;1.77;;;;;;;13.24;58.64;93725.13;524158;28;858;-46
2023/09/12 00:37:39;;;;;;;1.77;1.67;;;;;;;13.24;58.69;93719.59;524184;28;837;-47
2023/09/12 00:37:54;;;;;;;2.00;1.80;;;;;;;13.19;58.86;93712.19;524164;28;913;-46
2023/09/12 00:38:09;;;;;;;2.23;1.90;;;;;;;13.23;58.83;93718.09;524179;28;843;-46
2023/09/12 00:38:25;;;;;;;1.98;1.67;;;;;;;13.23;58.86;93726.41;524127;28;815;-47
2023/09/12 00:38:40;;;;;;;1.83;1.50;;;;;;;13.24;58.66;93725.13;524231;28;796;-46
2023/09/12 00:38:56;;;;;;;1.63;1.40;;;;;;;13.24;58.84;93727.16;524134;28;849;-46
2023/09/12 00:39:11;;;;;;;3.05;1.75;;;;;;;13.23;58.90;93726.41;523992;28;997;-47
2023/09/12 00:39:27;;;;;;;3.20;1.70;;;;;;;13.23;58.84;93729.19;523984;28;876;-48
2023/09/12 00:39:42;;;;;;;2.47;1.47;;;;;;;13.24;58.89;93725.13;524031;28;784;-47
2023/09/12 00:39:58;;;;;;;2.15;1.55;;;;;;;13.24;58.69;93725.13;523920;28;893;-47
2023/09/12 00:40:13;;;;;;;1.57;1.40;;;;;;;13.22;58.70;93724.97;523955;28;867;-46
2023/09/12 00:40:28;;;;;;;1.60;1.50;;;;;;;13.18;58.84;93716.28;523962;28;847;-46
2023/09/12 00:40:44;;;;;;;2.60;1.35;;;;;;;13.23;58.92;93720.88;523968;28;859;-47
2023/09/12 00:40:59;;;;;;;2.60;1.30;;;;;;;13.22;58.67;93722.19;524044;28;1523;-46
2023/09/12 00:41:14;;;;;;;2.33;1.43;;;;;;;13.22;58.86;93719.41;524208;28;839;-47
2023/09/12 00:41:30;;;;;;;2.92;1.73;;;;;;;13.21;58.77;93726.25;524188;28;978;-46
2023/09/12 00:41:45;;;;;;;2.43;1.90;;;;;;;13.21;59.01;93719.97;524156;28;906;-47
2023/09/12 00:42:01;;;;;;;1.87;1.73;;;;;;;13.20;59.04;93715.72;524119;28;787;-47
2023/09/12 00:42:16;;;;;;;1.45;1.35;;;;;;;13.21;59.02;93722.75;524210;28;843;-46
2023/09/12 00:42:31;;;;;;;2.60;1.30;;;;;;;13.20;59.02;93724.78;524135;28;1632;-47
2023/09/12 00:42:47;;;;;;;3.50;1.58;;;;;;;13.20;59.20;93722.00;524195;28;776;-48
2023/09/12 00:43:02;;;;;;;2.40;1.40;;;;;;;13.19;59.08;93719.81;524122;28;828;-46
2023/09/12 00:43:18;;;;;;;3.57;1.37;;;;;;;13.19;59.07;93714.25;524206;28;847;-46
2023/09/12 00:43:33;;;;;;;4.00;1.60;;;;;;;13.19;59.24;93723.28;524157;28;819;-46
2023/09/12 00:43:48;;;;;;;2.83;1.83;;;;;;;13.19;59.26;93723.28;523946;28;1283;-46
2023/09/12 00:44:04;;;;;;;2.00;1.80;;;;;;;13.19;59.28;93720.53;523994;28;792;-47
2023/09/12 00:44:19;;;;;;;1.83;1.60;;;;;;;13.19;59.24;93723.28;524007;28;810;-46
2023/09/12 00:44:35;;;;;;;1.93;1.53;;;;;;;13.19;59.21;93725.34;523893;28;835;-46
2023/09/12 00:44:50;;;;;;;2.67;1.40;;;;;;;13.19;59.26;93714.97;523997;28;890;-46
2023/09/12 00:45:06;;;;;;;2.70;1.60;;;;;;;13.19;59.19;93719.81;523923;28;844;-46
2023/09/12 00:45:21;;;;;;;2.00;1.80;;;;;;;13.19;59.03;93720.53;523971;28;954;-49
2023/09/12 00:45:37;;;;;;;1.77;1.63;;;;;;;13.19;59.15;93722.56;524018;28;780;-47
2023/09/12 00:45:52;;;;;;;2.08;1.40;;;;;;;13.19;59.22;93728.84;523965;28;1037;-46
2023/09/12 00:46:08;;;;;;;2.73;1.60;;;;;;;13.18;59.19;93721.84;523938;28;1021;-46
2023/09/12 00:46:23;;;;;;;2.25;1.67;;;;;;;13.18;59.08;93721.09;523966;28;1116;-47
2023/09/12 00:46:39;;;;;;;2.77;1.40;;;;;;;13.18;59.17;93726.63;524248;28;847;-46
2023/09/12 00:46:55;;;;;;;2.10;1.40;;;;;;;13.17;59.33;93725.88;524138;28;873;-47
2023/09/12 00:47:11;;;;;;;3.22;1.75;;;;;;;13.11;59.09;93717.03;523925;28;880;-46
2023/09/12 00:47:27;;;;;;;3.20;1.70;;;;;;;13.13;59.34;93713.69;521985;28;875;-46
2023/09/12 00:47:43;;;;;;;1.48;1.38;;;;;;;13.15;59.15;93720.16;521840;28;812;-46
2023/09/12 00:47:59;;;;;;;4.60;1.60;;;;;;;13.17;59.20;93720.34;519909;28;845;-46
2023/09/12 00:48:17;;;;;;;4.93;1.73;;;;;;;13.16;59.17;93723.69;517767;28;935;-46
2023/09/12 00:48:32;;;;;;;1.98;1.70;;;;;;;13.16;59.10;93729.22;515751;28;1021;-46
2023/09/12 00:48:49;;;;;;;1.55;1.45;;;;;;;13.12;59.11;93712.97;515888;28;835;-47
2023/09/12 00:49:07;;;;;;;1.23;1.13;;;;;;;13.17;58.91;93719.59;517773;28;881;-46
2023/09/12 00:49:22;;;;;;;1.60;1.50;;;;;;;13.17;58.89;93719.59;517817;28;876;-46
2023/09/12 00:49:39;;;;;;;2.10;1.90;;;;;;;13.16;58.91;93718.88;518960;28;1411;-47
2023/09/12 00:49:55;;;;;;;1.65;1.55;;;;;;;13.16;58.85;93721.66;519291;28;873;-47
2023/09/12 00:50:10;;;;;;;1.80;1.50;;;;;;;13.17;58.79;93716.81;519105;28;1011;-47
2023/09/12 00:50:26;;;;;;;1.70;1.50;;;;;;;13.17;58.71;93716.81;518820;28;781;-46
2023/09/12 00:50:42;;;;;;;1.60;1.50;;;;;;;13.17;58.73;93717.56;517859;28;752;-47
2023/09/12 00:50:57;;;;;;;1.60;1.50;;;;;;;13.17;58.72;93717.56;518774;28;867;-47
2023/09/12 00:51:14;;;;;;;1.60;1.50;;;;;;;13.17;58.66;93719.59;519206;28;1153;-46
2023/09/12 00:51:29;;;;;;;1.88;1.77;;;;;;;13.15;58.66;93720.16;518546;28;1237;-46
2023/09/12 00:51:45;;;;;;;1.83;1.58;;;;;;;13.16;58.66;93724.44;518398;28;1918;-47
2023/09/12 00:52:01;;;;;;;1.50;1.40;;;;;;;13.16;58.88;93721.66;519841;28;817;-46
2023/09/12 00:52:18;;;;;;;1.60;1.50;;;;;;;13.15;58.54;93717.41;519908;28;888;-46
2023/09/12 00:52:35;;;;;;;1.58;1.42;;;;;;;13.15;58.91;93717.41;519842;28;1049;-46
2023/09/12 00:52:51;;;;;;;1.70;1.45;;;;;;;13.15;58.66;93716.66;517824;28;1713;-46
2023/09/12 00:53:07;;;;;;;1.83;1.45;;;;;;;13.14;58.51;93710.38;517795;28;1644;-47
2023/09/12 00:53:23;;;;;;;3.50;1.30;;;;;;;13.15;58.19;93716.66;518941;28;816;-47
2023/09/12 00:53:38;;;;;;;2.97;1.50;;;;;;;13.15;58.06;93722.94;520987;28;792;-47
2023/09/12 00:53:55;;;;;;;1.75;1.50;;;;;;;13.13;58.14;93720.00;521918;28;830;-46
2023/09/12 00:54:11;;;;;;;2.30;1.30;;;;;;;13.11;58.12;93719.06;521865;28;929;-47
2023/09/12 00:54:26;;;;;;;1.58;1.20;;;;;;;13.08;58.09;93722.97;521874;28;942;-47
2023/09/12 00:54:42;;;;;;;1.67;1.30;;;;;;;13.06;57.86;93720.03;522656;28;890;-48
2023/09/12 00:54:57;;;;;;;2.15;1.25;;;;;;;12.99;58.15;93712.44;523961;28;858;-47
2023/09/12 00:55:13;;;;;;;3.00;1.20;;;;;;;13.00;58.15;93711.13;521703;28;2378;-46
2023/09/12 00:55:29;;;;;;;3.60;1.43;;;;;;;13.04;58.14;93720.53;522539;28;770;-47
2023/09/12 00:55:49;;;;;;;2.03;1.48;;;;;;;13.04;57.72;93717.75;521897;28;1292;-46
2023/09/12 00:56:04;;;;;;;1.50;1.30;;;;;;;13.03;57.71;93721.84;521899;28;883;-47
2023/09/12 00:56:19;;;;;;;2.53;1.50;;;;;;;13.03;57.69;93724.63;521898;28;1045;-46
2023/09/12 00:56:35;;;;;;;1.93;1.40;;;;;;;13.00;57.83;93720.19;521867;28;870;-47
2023/09/12 00:56:50;;;;;;;1.40;1.30;;;;;;;12.99;57.97;93727.03;521974;28;792;-47
2023/09/12 00:57:06;;;;;;;2.63;1.40;;;;;;;12.95;57.95;93715.56;522879;28;792;-47
2023/09/12 00:57:22;;;;;;;2.50;1.30;;;;;;;12.97;58.00;93723.34;523915;28;1140;-46
2023/09/12 00:57:37;;;;;;;1.30;1.20;;;;;;;12.94;57.97;93730.72;524025;28;823;-45
2023/09/12 00:57:53;;;;;;;1.40;1.30;;;;;;;12.92;58.14;93722.97;521888;28;847;-46
2023/09/12 00:58:08;;;;;;;1.53;1.43;;;;;;;12.92;58.02;93722.97;521875;28;1059;-47
2023/09/12 00:58:25;;;;;;;1.73;1.50;;;;;;;12.85;58.02;93703.59;522292;28;863;-46
2023/09/12 00:58:41;;;;;;;3.05;1.73;;;;;;;12.89;58.19;93723.34;524030;28;906;-46
2023/09/12 00:58:56;;;;;;;2.78;1.73;;;;;;;12.94;58.29;93716.88;524052;28;823;-46
2023/09/12 00:59:13;;;;;;;2.90;1.60;;;;;;;12.95;58.41;93724.63;523949;28;905;-46
2023/09/12 00:59:28;;;;;;;2.97;1.52;;;;;;;12.95;58.34;93730.16;521945;28;888;-46
2023/09/12 00:59:44;;;;;;;2.30;1.57;;;;;;;12.95;58.49;93727.38;521901;28;877;-47
2023/09/12 01:00:12;;;;;;;2.03;1.63;;;;;;;12.96;58.49;93728.13;519812;28;894;-46
2023/09/12 01:00:27;;;;;;;4.32;1.60;;;;;;;12.98;58.47;93730.34;519955;28;938;-47
2023/09/12 01:00:43;;;;;;;1.60;1.50;;;;;;;12.97;58.68;93717.78;521832;28;942;-46
2023/09/12 01:00:58;;;;;;;1.40;1.30;;;;;;;12.93;58.52;93723.69;519902;28;816;-47
2023/09/12 01:01:13;;;;;;;2.00;1.40;;;;;;;12.93;58.50;93720.94;519877;28;832;-46
2023/09/12 01:01:29;;;;;;;1.67;1.40;;;;;;;12.93;58.58;93732.75;521891;28;985;-46
2023/09/12 01:01:44;;;;;;;2.53;1.60;;;;;;;12.92;58.50;93725.00;519895;28;814;-46
2023/09/12 01:02:00;;;;;;;7.20;2.20;;;;;;;12.92;58.45;93728.53;521868;28;1030;-47
2023/09/12 01:02:16;;;;;;;6.60;2.23;;;;;;;12.92;58.42;93722.22;521827;28;899;-47
2023/09/12 01:02:32;;;;;;;4.57;1.90;;;;;;;12.92;58.34;93725.75;519820;28;922;-46
2023/09/12 01:02:49;;;;;;;3.65;1.70;;;;;;;12.86;58.64;93718.94;518290;28;788;-46
2023/09/12 01:03:05;;;;;;;2.38;1.77;;;;;;;12.93;58.71;93726.47;519759;28;878;-46
2023/09/12 01:03:20;;;;;;;2.55;1.58;;;;;;;12.94;58.55;93728.69;519816;28;772;-46
2023/09/12 01:03:36;;;;;;;2.90;1.67;;;;;;;12.94;58.67;93725.94;520625;28;743;-47
2023/09/12 01:03:51;;;;;;;2.58;1.80;;;;;;;12.86;58.68;93714.09;521865;28;869;-46
2023/09/12 01:04:07;;;;;;;1.63;1.53;;;;;;;12.95;58.55;93730.16;521919;28;768;-46
2023/09/12 01:04:22;;;;;;;1.60;1.45;;;;;;;12.94;58.61;93717.63;520409;28;874;-46
2023/09/12 01:04:38;;;;;;;2.00;1.57;;;;;;;12.96;58.52;93725.38;522545;28;755;-47
2023/09/12 01:04:53;;;;;;;3.07;1.53;;;;;;;12.95;58.49;93727.38;523945;28;826;-46
2023/09/12 01:05:09;;;;;;;2.90;1.60;;;;;;;12.96;58.36;93717.06;523989;28;767;-46
2023/09/12 01:05:25;;;;;;;1.85;1.67;;;;;;;12.97;58.15;93731.66;523822;28;928;-47
2023/09/12 01:05:42;;;;;;;1.75;1.55;;;;;;;12.87;58.50;93709.31;521895;28;847;-46
2023/09/12 01:05:59;;;;;;;2.92;1.63;;;;;;;12.97;58.51;93728.88;519766;28;879;-47
2023/09/12 01:06:15;;;;;;;2.83;1.73;;;;;;;12.96;58.49;93728.13;518605;28;831;-48
2023/09/12 01:06:31;;;;;;;1.63;1.50;;;;;;;12.97;58.72;93726.09;517775;28;851;-47
2023/09/12 01:06:48;;;;;;;2.58;1.42;;;;;;;12.98;58.74;93719.25;517839;28;847;-46
2023/09/12 01:07:04;;;;;;;4.20;1.40;;;;;;;12.98;58.74;93728.31;517763;28;793;-47
2023/09/12 01:07:19;;;;;;;2.05;1.20;;;;;;;12.97;58.48;93728.88;517770;28;1024;-47
2023/09/12 01:07:38;;;;;;;1.60;1.50;;;;;;;12.97;58.38;93715.78;517018;28;1168;-47
2023/09/12 01:07:53;;;;;;;1.95;1.55;;;;;;;12.98;58.23;93731.09;517084;28;840;-46
2023/09/12 01:08:09;;;;;;;2.35;1.48;;;;;;;12.96;58.45;93730.91;518947;28;840;-47
2023/09/12 01:08:24;;;;;;;1.90;1.40;;;;;;;12.97;58.26;93721.31;518817;28;930;-46
2023/09/12 01:08:39;;;;;;;2.13;1.30;;;;;;;12.95;58.53;93727.38;519836;28;1076;-46
2023/09/12 01:08:55;;;;;;;2.07;1.40;;;;;;;12.95;58.52;93727.38;519828;28;793;-46
2023/09/12 01:09:11;;;;;;;3.28;1.33;;;;;;;12.94;58.42;93725.94;519878;28;790;-46
2023/09/12 01:09:27;;;;;;;3.85;1.33;;;;;;;12.94;58.65;93725.94;518525;28;1459;-46
2023/09/12 01:09:42;;;;;;;2.43;1.60;;;;;;;12.95;58.47;93726.66;520346;28;796;-46
2023/09/12 01:09:58;;;;;;;2.15;1.58;;;;;;;12.95;58.62;93729.41;521944;28;780;-47
2023/09/12 01:10:13;;;;;;;2.23;1.50;;;;;;;12.96;58.60;93728.13;522342;28;843;-47
2023/09/12 01:10:28;;;;;;;2.15;1.58;;;;;;;12.96;58.50;93730.91;521855;28;1242;-46
2023/09/12 01:10:46;;;;;;;2.33;1.60;;;;;;;12.95;58.54;93734.97;521903;28;886;-46
2023/09/12 01:11:02;;;;;;;1.88;1.40;;;;;;;12.90;58.33;93716.50;519867;28;834;-46
2023/09/12 01:11:17;;;;;;;1.37;1.27;;;;;;;12.94;58.18;93725.19;520533;28;851;-47
2023/09/12 01:11:33;;;;;;;2.90;1.48;;;;;;;12.94;58.19;93723.16;521947;28;893;-46
2023/09/12 01:11:48;;;;;;;2.97;1.47;;;;;;;12.95;58.06;93732.19;521890;28;1974;-46
2023/09/12 01:12:04;;;;;;;1.55;1.25;;;;;;;12.94;58.10;93730.72;521884;28;886;-46
2023/09/12 01:12:20;;;;;;;2.07;1.17;;;;;;;12.94;58.07;93725.94;522538;28;937;-47
2023/09/12 01:12:36;;;;;;;2.47;1.48;;;;;;;12.95;57.92;93729.41;524002;28;798;-46
2023/09/12 01:12:52;;;;;;;1.48;1.30;;;;;;;12.94;58.17;93736.28;524041;28;796;-46
2023/09/12 01:13:07;;;;;;;1.52;1.42;;;;;;;12.94;58.19;93727.97;524009;28;925;-46
2023/09/12 01:13:23;;;;;;;2.60;1.70;;;;;;;12.94;58.21;93725.19;523897;28;898;-46
2023/09/12 01:13:38;;;;;;;2.70;1.50;;;;;;;12.93;58.23;93732.75;524036;28;800;-47
2023/09/12 01:13:54;;;;;;;1.88;1.48;;;;;;;12.92;58.10;93725.00;523954;28;850;-46
2023/09/12 01:14:09;;;;;;;1.70;1.53;;;;;;;12.91;57.99;93731.84;523958;28;825;-46
2023/09/12 01:14:24;;;;;;;2.97;1.47;;;;;;;12.90;58.22;93725.56;523919;28;1053;-46
2023/09/12 01:14:40;;;;;;;2.50;1.30;;;;;;;12.90;58.42;93727.59;523927;28;851;-46
2023/09/12 01:14:56;;;;;;;1.63;1.52;;;;;;;12.90;58.17;93724.81;524000;28;908;-46
2023/09/12 01:15:14;;;;;;;1.90;1.80;;;;;;;12.90;58.29;93736.66;523947;28;858;-47
2023/09/12 01:15:29;;;;;;;1.48;1.38;;;;;;;12.89;58.19;93732.41;524094;28;901;-47
2023/09/12 01:15:44;;;;;;;1.30;1.20;;;;;;;12.89;57.90;93740.72;524010;28;854;-47
2023/09/12 01:16:00;;;;;;;2.17;1.40;;;;;;;12.78;57.89;93712.66;524123;28;850;-47
2023/09/12 01:16:15;;;;;;;2.50;1.40;;;;;;;12.88;58.09;93732.97;523910;28;764;-47
2023/09/12 01:16:30;;;;;;;1.40;1.30;;;;;;;12.87;57.96;93734.25;524004;28;837;-46
2023/09/12 01:16:46;;;;;;;1.35;1.25;;;;;;;12.85;58.04;93728.53;523885;28;945;-47
2023/09/12 01:17:02;;;;;;;2.70;1.40;;;;;;;12.84;57.90;93729.84;523949;28;858;-47